sensor_id;sensor_type;location;lat;lon;timestamp;P1;durP1;ratioP1;P2;durP2;ratioP2
71172;SDS011;58875;51.996;4.504;2023-07-20T00:01:22;4.24;;;4.24;;
71172;SDS011;58875;51.996;4.504;2023-07-20T00:03:48;4.55;;;4.55;;
71172;SDS011;58875;51.996;4.504;2023-07-20T00:06:20;5.12;;;5.12;;
71172;SDS011;58875;51.996;4.504;2023-07-20T00:08:46;4.73;;;4.73;;
71172;SDS011;58875;51.996;4.504;2023-07-20T00:11:12;4.45;;;4.45;;
71172;SDS011;58875;51.996;4.504;2023-07-20T00:13:39;4.25;;;4.25;;
71172;SDS011;58875;51.996;4.504;2023-07-20T00:16:05;4.36;;;4.36;;
71172;SDS011;58875;51.996;4.504;2023-07-20T00:18:31;4.82;;;4.82;;
71172;SDS011;58875;51.996;4.504;2023-07-20T00:20:56;4.80;;;4.80;;
71172;SDS011;58875;51.996;4.504;2023-07-20T00:23:22;4.84;;;4.84;;
71172;SDS011;58875;51.996;4.504;2023-07-20T00:25:48;4.74;;;4.74;;
71172;SDS011;58875;51.996;4.504;2023-07-20T00:28:14;4.84;;;4.84;;
71172;SDS011;58875;51.996;4.504;2023-07-20T00:30:40;4.53;;;4.53;;
71172;SDS011;58875;51.996;4.504;2023-07-20T00:33:10;4.55;;;4.55;;
71172;SDS011;58875;51.996;4.504;2023-07-20T00:35:37;4.45;;;4.45;;
71172;SDS011;58875;51.996;4.504;2023-07-20T00:38:03;4.24;;;4.24;;
71172;SDS011;58875;51.996;4.504;2023-07-20T00:40:39;4.16;;;4.16;;
71172;SDS011;58875;51.996;4.504;2023-07-20T00:43:06;3.69;;;3.69;;
71172;SDS011;58875;51.996;4.504;2023-07-20T00:45:32;3.46;;;3.46;;
71172;SDS011;58875;51.996;4.504;2023-07-20T00:47:59;3.87;;;3.87;;
71172;SDS011;58875;51.996;4.504;2023-07-20T00:50:27;3.89;;;3.89;;
71172;SDS011;58875;51.996;4.504;2023-07-20T00:52:57;3.79;;;3.79;;
71172;SDS011;58875;51.996;4.504;2023-07-20T00:55:24;3.33;;;3.33;;
71172;SDS011;58875;51.996;4.504;2023-07-20T00:57:53;3.41;;;3.41;;
71172;SDS011;58875;51.996;4.504;2023-07-20T01:00:19;3.12;;;3.12;;
71172;SDS011;58875;51.996;4.504;2023-07-20T01:02:45;2.92;;;2.92;;
71172;SDS011;58875;51.996;4.504;2023-07-20T01:05:12;2.99;;;2.99;;
71172;SDS011;58875;51.996;4.504;2023-07-20T01:07:52;3.00;;;3.00;;
71172;SDS011;58875;51.996;4.504;2023-07-20T01:10:29;3.21;;;3.21;;
71172;SDS011;58875;51.996;4.504;2023-07-20T01:13:04;3.38;;;3.38;;
71172;SDS011;58875;51.996;4.504;2023-07-20T01:15:33;3.34;;;3.34;;
71172;SDS011;58875;51.996;4.504;2023-07-20T01:17:59;3.01;;;3.01;;
71172;SDS011;58875;51.996;4.504;2023-07-20T01:20:26;2.71;;;2.71;;
71172;SDS011;58875;51.996;4.504;2023-07-20T01:31:45;2.18;;;2.18;;
71172;SDS011;58875;51.996;4.504;2023-07-20T01:34:18;2.16;;;2.16;;
71172;SDS011;58875;51.996;4.504;2023-07-20T01:36:47;2.08;;;2.08;;
71172;SDS011;58875;51.996;4.504;2023-07-20T01:39:17;2.00;;;2.00;;
71172;SDS011;58875;51.996;4.504;2023-07-20T01:41:45;2.05;;;2.05;;
71172;SDS011;58875;51.996;4.504;2023-07-20T01:44:12;1.92;;;1.92;;
71172;SDS011;58875;51.996;4.504;2023-07-20T01:46:38;2.15;;;2.15;;
71172;SDS011;58875;51.996;4.504;2023-07-20T01:49:03;2.04;;;2.04;;
71172;SDS011;58875;51.996;4.504;2023-07-20T01:51:29;1.85;;;1.85;;
71172;SDS011;58875;51.996;4.504;2023-07-20T01:53:54;1.79;;;1.79;;
71172;SDS011;58875;51.996;4.504;2023-07-20T01:56:22;1.66;;;1.66;;
71172;SDS011;58875;51.996;4.504;2023-07-20T01:58:48;1.68;;;1.68;;
71172;SDS011;58875;51.996;4.504;2023-07-20T02:01:13;1.73;;;1.73;;
71172;SDS011;58875;51.996;4.504;2023-07-20T02:03:39;1.69;;;1.69;;
71172;SDS011;58875;51.996;4.504;2023-07-20T02:06:04;1.70;;;1.70;;
71172;SDS011;58875;51.996;4.504;2023-07-20T02:08:30;1.56;;;1.56;;
71172;SDS011;58875;51.996;4.504;2023-07-20T02:10:55;1.64;;;1.64;;
71172;SDS011;58875;51.996;4.504;2023-07-20T02:13:21;1.88;;;1.88;;
71172;SDS011;58875;51.996;4.504;2023-07-20T02:15:46;1.92;;;1.92;;
71172;SDS011;58875;51.996;4.504;2023-07-20T02:18:14;2.08;;;2.08;;
71172;SDS011;58875;51.996;4.504;2023-07-20T02:20:40;2.26;;;2.26;;
71172;SDS011;58875;51.996;4.504;2023-07-20T02:23:06;2.12;;;2.12;;
71172;SDS011;58875;51.996;4.504;2023-07-20T02:25:32;2.25;;;2.25;;
71172;SDS011;58875;51.996;4.504;2023-07-20T02:27:57;2.11;;;2.11;;
71172;SDS011;58875;51.996;4.504;2023-07-20T02:30:23;1.99;;;1.99;;
71172;SDS011;58875;51.996;4.504;2023-07-20T02:32:49;1.93;;;1.93;;
71172;SDS011;58875;51.996;4.504;2023-07-20T02:35:15;2.24;;;2.24;;
71172;SDS011;58875;51.996;4.504;2023-07-20T02:37:41;2.04;;;2.04;;
71172;SDS011;58875;51.996;4.504;2023-07-20T02:40:06;1.99;;;1.99;;
71172;SDS011;58875;51.996;4.504;2023-07-20T02:42:33;2.02;;;2.02;;
71172;SDS011;58875;51.996;4.504;2023-07-20T02:44:58;1.89;;;1.89;;
71172;SDS011;58875;51.996;4.504;2023-07-20T02:47:24;2.00;;;2.00;;
71172;SDS011;58875;51.996;4.504;2023-07-20T02:49:50;1.84;;;1.84;;
71172;SDS011;58875;51.996;4.504;2023-07-20T02:52:16;2.03;;;2.03;;
71172;SDS011;58875;51.996;4.504;2023-07-20T02:54:41;1.92;;;1.92;;
71172;SDS011;58875;51.996;4.504;2023-07-20T02:57:07;1.94;;;1.94;;
71172;SDS011;58875;51.996;4.504;2023-07-20T02:59:32;2.11;;;2.11;;
71172;SDS011;58875;51.996;4.504;2023-07-20T03:01:58;2.36;;;2.36;;
71172;SDS011;58875;51.996;4.504;2023-07-20T03:04:27;2.33;;;2.33;;
71172;SDS011;58875;51.996;4.504;2023-07-20T03:06:52;2.46;;;2.46;;
71172;SDS011;58875;51.996;4.504;2023-07-20T03:09:18;2.55;;;2.55;;
71172;SDS011;58875;51.996;4.504;2023-07-20T03:11:43;2.39;;;2.39;;
71172;SDS011;58875;51.996;4.504;2023-07-20T03:14:09;2.39;;;2.39;;
71172;SDS011;58875;51.996;4.504;2023-07-20T03:16:35;2.30;;;2.30;;
71172;SDS011;58875;51.996;4.504;2023-07-20T03:19:01;2.38;;;2.38;;
71172;SDS011;58875;51.996;4.504;2023-07-20T03:21:27;2.36;;;2.36;;
71172;SDS011;58875;51.996;4.504;2023-07-20T03:23:52;2.30;;;2.30;;
71172;SDS011;58875;51.996;4.504;2023-07-20T03:26:18;2.36;;;2.36;;
71172;SDS011;58875;51.996;4.504;2023-07-20T03:28:44;2.32;;;2.32;;
71172;SDS011;58875;51.996;4.504;2023-07-20T03:31:10;2.37;;;2.37;;
71172;SDS011;58875;51.996;4.504;2023-07-20T03:33:35;2.44;;;2.44;;
71172;SDS011;58875;51.996;4.504;2023-07-20T03:36:01;2.33;;;2.33;;
71172;SDS011;58875;51.996;4.504;2023-07-20T03:38:27;2.38;;;2.38;;
71172;SDS011;58875;51.996;4.504;2023-07-20T03:40:56;2.61;;;2.61;;
71172;SDS011;58875;51.996;4.504;2023-07-20T03:43:24;2.47;;;2.47;;
71172;SDS011;58875;51.996;4.504;2023-07-20T03:45:51;2.60;;;2.60;;
71172;SDS011;58875;51.996;4.504;2023-07-20T03:48:23;2.56;;;2.56;;
71172;SDS011;58875;51.996;4.504;2023-07-20T03:50:51;2.64;;;2.64;;
71172;SDS011;58875;51.996;4.504;2023-07-20T03:53:18;2.46;;;2.46;;
71172;SDS011;58875;51.996;4.504;2023-07-20T03:55:47;2.26;;;2.26;;
71172;SDS011;58875;51.996;4.504;2023-07-20T03:58:14;2.44;;;2.44;;
71172;SDS011;58875;51.996;4.504;2023-07-20T04:00:40;2.23;;;2.23;;
71172;SDS011;58875;51.996;4.504;2023-07-20T04:03:12;2.53;;;2.53;;
71172;SDS011;58875;51.996;4.504;2023-07-20T04:05:38;2.39;;;2.39;;
71172;SDS011;58875;51.996;4.504;2023-07-20T04:08:04;2.26;;;2.26;;
71172;SDS011;58875;51.996;4.504;2023-07-20T04:10:29;2.48;;;2.48;;
71172;SDS011;58875;51.996;4.504;2023-07-20T04:12:55;2.37;;;2.37;;
71172;SDS011;58875;51.996;4.504;2023-07-20T04:15:21;2.61;;;2.61;;
71172;SDS011;58875;51.996;4.504;2023-07-20T04:17:46;2.42;;;2.42;;
71172;SDS011;58875;51.996;4.504;2023-07-20T04:20:12;2.52;;;2.52;;
71172;SDS011;58875;51.996;4.504;2023-07-20T04:22:38;2.74;;;2.74;;
71172;SDS011;58875;51.996;4.504;2023-07-20T04:25:03;2.57;;;2.57;;
71172;SDS011;58875;51.996;4.504;2023-07-20T04:27:29;2.57;;;2.57;;
71172;SDS011;58875;51.996;4.504;2023-07-20T04:29:55;2.86;;;2.86;;
71172;SDS011;58875;51.996;4.504;2023-07-20T04:32:22;2.67;;;2.67;;
71172;SDS011;58875;51.996;4.504;2023-07-20T04:34:48;2.63;;;2.63;;
71172;SDS011;58875;51.996;4.504;2023-07-20T04:37:13;2.69;;;2.69;;
71172;SDS011;58875;51.996;4.504;2023-07-20T04:39:39;2.60;;;2.60;;
71172;SDS011;58875;51.996;4.504;2023-07-20T04:42:05;2.62;;;2.62;;
71172;SDS011;58875;51.996;4.504;2023-07-20T04:44:32;2.70;;;2.70;;
71172;SDS011;58875;51.996;4.504;2023-07-20T04:46:58;2.66;;;2.66;;
71172;SDS011;58875;51.996;4.504;2023-07-20T04:49:23;2.74;;;2.74;;
71172;SDS011;58875;51.996;4.504;2023-07-20T04:51:49;2.71;;;2.71;;
71172;SDS011;58875;51.996;4.504;2023-07-20T04:54:14;2.97;;;2.97;;
71172;SDS011;58875;51.996;4.504;2023-07-20T04:56:42;2.97;;;2.97;;
71172;SDS011;58875;51.996;4.504;2023-07-20T04:59:07;2.96;;;2.96;;
71172;SDS011;58875;51.996;4.504;2023-07-20T05:01:33;3.13;;;3.13;;
71172;SDS011;58875;51.996;4.504;2023-07-20T05:03:58;3.38;;;3.38;;
71172;SDS011;58875;51.996;4.504;2023-07-20T05:06:24;3.62;;;3.62;;
71172;SDS011;58875;51.996;4.504;2023-07-20T05:08:49;3.58;;;3.58;;
71172;SDS011;58875;51.996;4.504;2023-07-20T05:11:14;3.41;;;3.41;;
71172;SDS011;58875;51.996;4.504;2023-07-20T05:13:40;3.27;;;3.27;;
71172;SDS011;58875;51.996;4.504;2023-07-20T05:16:06;3.44;;;3.44;;
71172;SDS011;58875;51.996;4.504;2023-07-20T05:18:31;3.11;;;3.11;;
71172;SDS011;58875;51.996;4.504;2023-07-20T05:20:57;3.04;;;3.04;;
71172;SDS011;58875;51.996;4.504;2023-07-20T05:23:22;3.15;;;3.15;;
71172;SDS011;58875;51.996;4.504;2023-07-20T05:25:55;3.01;;;3.01;;
71172;SDS011;58875;51.996;4.504;2023-07-20T05:28:24;3.07;;;3.07;;
71172;SDS011;58875;51.996;4.504;2023-07-20T05:30:50;3.50;;;3.50;;
71172;SDS011;58875;51.996;4.504;2023-07-20T05:33:22;3.20;;;3.20;;
71172;SDS011;58875;51.996;4.504;2023-07-20T05:35:48;3.36;;;3.36;;
71172;SDS011;58875;51.996;4.504;2023-07-20T05:38:13;3.15;;;3.15;;
71172;SDS011;58875;51.996;4.504;2023-07-20T05:40:43;3.43;;;3.43;;
71172;SDS011;58875;51.996;4.504;2023-07-20T05:43:10;3.63;;;3.63;;
71172;SDS011;58875;51.996;4.504;2023-07-20T05:45:36;3.58;;;3.58;;
71172;SDS011;58875;51.996;4.504;2023-07-20T05:48:02;3.27;;;3.27;;
71172;SDS011;58875;51.996;4.504;2023-07-20T05:50:27;3.69;;;3.69;;
71172;SDS011;58875;51.996;4.504;2023-07-20T05:52:53;3.25;;;3.25;;
71172;SDS011;58875;51.996;4.504;2023-07-20T05:55:20;3.28;;;3.28;;
71172;SDS011;58875;51.996;4.504;2023-07-20T05:57:48;3.09;;;3.09;;
71172;SDS011;58875;51.996;4.504;2023-07-20T06:00:14;3.10;;;3.10;;
71172;SDS011;58875;51.996;4.504;2023-07-20T06:02:40;3.29;;;3.29;;
71172;SDS011;58875;51.996;4.504;2023-07-20T06:05:06;3.04;;;3.04;;
71172;SDS011;58875;51.996;4.504;2023-07-20T06:07:35;3.11;;;3.11;;
71172;SDS011;58875;51.996;4.504;2023-07-20T06:10:04;3.27;;;3.27;;
71172;SDS011;58875;51.996;4.504;2023-07-20T06:12:31;3.16;;;3.16;;
71172;SDS011;58875;51.996;4.504;2023-07-20T06:14:57;3.10;;;3.10;;
71172;SDS011;58875;51.996;4.504;2023-07-20T06:17:23;2.31;;;2.31;;
71172;SDS011;58875;51.996;4.504;2023-07-20T06:19:48;1.79;;;1.79;;
71172;SDS011;58875;51.996;4.504;2023-07-20T06:22:14;1.82;;;1.82;;
71172;SDS011;58875;51.996;4.504;2023-07-20T06:24:43;2.04;;;2.04;;
71172;SDS011;58875;51.996;4.504;2023-07-20T06:27:08;1.75;;;1.75;;
71172;SDS011;58875;51.996;4.504;2023-07-20T06:29:33;1.84;;;1.84;;
71172;SDS011;58875;51.996;4.504;2023-07-20T06:31:59;1.63;;;1.63;;
71172;SDS011;58875;51.996;4.504;2023-07-20T06:34:25;1.56;;;1.56;;
71172;SDS011;58875;51.996;4.504;2023-07-20T06:36:50;1.31;;;1.31;;
71172;SDS011;58875;51.996;4.504;2023-07-20T06:39:16;1.36;;;1.36;;
71172;SDS011;58875;51.996;4.504;2023-07-20T06:41:41;1.41;;;1.41;;
71172;SDS011;58875;51.996;4.504;2023-07-20T06:44:06;1.30;;;1.30;;
71172;SDS011;58875;51.996;4.504;2023-07-20T06:46:33;1.35;;;1.35;;
71172;SDS011;58875;51.996;4.504;2023-07-20T06:48:58;1.44;;;1.44;;
71172;SDS011;58875;51.996;4.504;2023-07-20T06:51:24;1.35;;;1.35;;
71172;SDS011;58875;51.996;4.504;2023-07-20T06:53:49;1.50;;;1.50;;
71172;SDS011;58875;51.996;4.504;2023-07-20T06:56:15;1.42;;;1.42;;
71172;SDS011;58875;51.996;4.504;2023-07-20T06:58:40;1.48;;;1.48;;
71172;SDS011;58875;51.996;4.504;2023-07-20T07:01:07;1.56;;;1.56;;
71172;SDS011;58875;51.996;4.504;2023-07-20T07:03:33;1.46;;;1.46;;
71172;SDS011;58875;51.996;4.504;2023-07-20T07:06:00;1.67;;;1.67;;
71172;SDS011;58875;51.996;4.504;2023-07-20T07:08:26;1.62;;;1.62;;
71172;SDS011;58875;51.996;4.504;2023-07-20T07:10:52;1.71;;;1.71;;
71172;SDS011;58875;51.996;4.504;2023-07-20T07:13:18;1.64;;;1.64;;
71172;SDS011;58875;51.996;4.504;2023-07-20T07:15:44;1.59;;;1.59;;
71172;SDS011;58875;51.996;4.504;2023-07-20T07:18:10;1.51;;;1.51;;
71172;SDS011;58875;51.996;4.504;2023-07-20T07:20:36;1.58;;;1.58;;
71172;SDS011;58875;51.996;4.504;2023-07-20T07:23:01;1.47;;;1.47;;
71172;SDS011;58875;51.996;4.504;2023-07-20T07:25:27;1.50;;;1.50;;
71172;SDS011;58875;51.996;4.504;2023-07-20T07:27:53;1.64;;;1.64;;
71172;SDS011;58875;51.996;4.504;2023-07-20T07:30:21;1.48;;;1.48;;
71172;SDS011;58875;51.996;4.504;2023-07-20T07:32:46;1.60;;;1.60;;
71172;SDS011;58875;51.996;4.504;2023-07-20T07:35:12;1.78;;;1.78;;
71172;SDS011;58875;51.996;4.504;2023-07-20T07:37:38;1.63;;;1.63;;
71172;SDS011;58875;51.996;4.504;2023-07-20T07:40:04;1.51;;;1.51;;
71172;SDS011;58875;51.996;4.504;2023-07-20T07:42:31;1.69;;;1.69;;
71172;SDS011;58875;51.996;4.504;2023-07-20T07:44:56;1.69;;;1.69;;
71172;SDS011;58875;51.996;4.504;2023-07-20T07:47:22;1.58;;;1.58;;
71172;SDS011;58875;51.996;4.504;2023-07-20T07:49:47;1.66;;;1.66;;
71172;SDS011;58875;51.996;4.504;2023-07-20T07:52:13;1.56;;;1.56;;
71172;SDS011;58875;51.996;4.504;2023-07-20T07:54:39;1.58;;;1.58;;
71172;SDS011;58875;51.996;4.504;2023-07-20T07:57:05;1.68;;;1.68;;
71172;SDS011;58875;51.996;4.504;2023-07-20T07:59:30;1.77;;;1.77;;
71172;SDS011;58875;51.996;4.504;2023-07-20T08:02:01;1.76;;;1.76;;
71172;SDS011;58875;51.996;4.504;2023-07-20T08:04:27;1.97;;;1.97;;
71172;SDS011;58875;51.996;4.504;2023-07-20T08:06:53;1.82;;;1.82;;
71172;SDS011;58875;51.996;4.504;2023-07-20T08:09:18;1.56;;;1.56;;
71172;SDS011;58875;51.996;4.504;2023-07-20T08:11:44;1.81;;;1.81;;
71172;SDS011;58875;51.996;4.504;2023-07-20T08:14:09;1.75;;;1.75;;
71172;SDS011;58875;51.996;4.504;2023-07-20T08:16:35;1.65;;;1.65;;
71172;SDS011;58875;51.996;4.504;2023-07-20T08:19:00;1.70;;;1.70;;
71172;SDS011;58875;51.996;4.504;2023-07-20T08:21:27;1.56;;;1.56;;
71172;SDS011;58875;51.996;4.504;2023-07-20T08:23:52;1.63;;;1.63;;
71172;SDS011;58875;51.996;4.504;2023-07-20T08:26:18;1.67;;;1.67;;
71172;SDS011;58875;51.996;4.504;2023-07-20T08:28:44;1.68;;;1.68;;
71172;SDS011;58875;51.996;4.504;2023-07-20T08:31:10;1.97;;;1.97;;
71172;SDS011;58875;51.996;4.504;2023-07-20T08:33:36;1.92;;;1.92;;
71172;SDS011;58875;51.996;4.504;2023-07-20T08:36:01;1.73;;;1.73;;
71172;SDS011;58875;51.996;4.504;2023-07-20T08:38:28;2.07;;;2.07;;
71172;SDS011;58875;51.996;4.504;2023-07-20T08:40:54;1.77;;;1.77;;
71172;SDS011;58875;51.996;4.504;2023-07-20T08:43:20;1.77;;;1.77;;
71172;SDS011;58875;51.996;4.504;2023-07-20T08:45:52;1.62;;;1.62;;
71172;SDS011;58875;51.996;4.504;2023-07-20T08:48:21;1.55;;;1.55;;
71172;SDS011;58875;51.996;4.504;2023-07-20T08:50:47;1.53;;;1.53;;
71172;SDS011;58875;51.996;4.504;2023-07-20T08:53:16;1.49;;;1.49;;
71172;SDS011;58875;51.996;4.504;2023-07-20T08:55:44;1.63;;;1.63;;
71172;SDS011;58875;51.996;4.504;2023-07-20T08:58:12;1.26;;;1.26;;
71172;SDS011;58875;51.996;4.504;2023-07-20T09:00:39;1.38;;;1.38;;
71172;SDS011;58875;51.996;4.504;2023-07-20T09:03:06;1.32;;;1.32;;
71172;SDS011;58875;51.996;4.504;2023-07-20T09:05:33;1.21;;;1.21;;
71172;SDS011;58875;51.996;4.504;2023-07-20T09:08:00;1.17;;;1.17;;
71172;SDS011;58875;51.996;4.504;2023-07-20T09:10:29;1.20;;;1.20;;
71172;SDS011;58875;51.996;4.504;2023-07-20T09:12:54;1.33;;;1.33;;
71172;SDS011;58875;51.996;4.504;2023-07-20T09:15:21;1.31;;;1.31;;
71172;SDS011;58875;51.996;4.504;2023-07-20T09:17:48;1.23;;;1.23;;
71172;SDS011;58875;51.996;4.504;2023-07-20T09:20:17;1.37;;;1.37;;
71172;SDS011;58875;51.996;4.504;2023-07-20T09:22:43;1.29;;;1.29;;
71172;SDS011;58875;51.996;4.504;2023-07-20T09:25:16;1.37;;;1.37;;
71172;SDS011;58875;51.996;4.504;2023-07-20T09:27:45;1.21;;;1.21;;
71172;SDS011;58875;51.996;4.504;2023-07-20T09:30:12;1.35;;;1.35;;
71172;SDS011;58875;51.996;4.504;2023-07-20T09:32:43;1.29;;;1.29;;
71172;SDS011;58875;51.996;4.504;2023-07-20T09:37:57;1.17;;;1.17;;
71172;SDS011;58875;51.996;4.504;2023-07-20T09:40:24;1.11;;;1.11;;
71172;SDS011;58875;51.996;4.504;2023-07-20T09:42:51;1.07;;;1.07;;
71172;SDS011;58875;51.996;4.504;2023-07-20T09:45:27;1.15;;;1.15;;
71172;SDS011;58875;51.996;4.504;2023-07-20T09:48:00;1.12;;;1.12;;
71172;SDS011;58875;51.996;4.504;2023-07-20T09:50:30;1.28;;;1.28;;
71172;SDS011;58875;51.996;4.504;2023-07-20T09:52:55;1.24;;;1.24;;
71172;SDS011;58875;51.996;4.504;2023-07-20T09:55:22;1.20;;;1.20;;
71172;SDS011;58875;51.996;4.504;2023-07-20T09:57:49;1.37;;;1.37;;
71172;SDS011;58875;51.996;4.504;2023-07-20T10:00:14;1.29;;;1.29;;
71172;SDS011;58875;51.996;4.504;2023-07-20T10:02:44;1.29;;;1.29;;
71172;SDS011;58875;51.996;4.504;2023-07-20T10:05:12;1.34;;;1.34;;
71172;SDS011;58875;51.996;4.504;2023-07-20T10:07:40;1.43;;;1.43;;
71172;SDS011;58875;51.996;4.504;2023-07-20T10:10:18;1.40;;;1.40;;
71172;SDS011;58875;51.996;4.504;2023-07-20T10:12:45;1.56;;;1.56;;
71172;SDS011;58875;51.996;4.504;2023-07-20T10:15:15;1.35;;;1.35;;
71172;SDS011;58875;51.996;4.504;2023-07-20T10:20:27;1.46;;;1.46;;
71172;SDS011;58875;51.996;4.504;2023-07-20T10:22:54;1.67;;;1.67;;
71172;SDS011;58875;51.996;4.504;2023-07-20T10:25:22;1.62;;;1.62;;
71172;SDS011;58875;51.996;4.504;2023-07-20T10:27:49;1.55;;;1.55;;
71172;SDS011;58875;51.996;4.504;2023-07-20T10:30:15;1.55;;;1.55;;
71172;SDS011;58875;51.996;4.504;2023-07-20T10:32:43;1.58;;;1.58;;
71172;SDS011;58875;51.996;4.504;2023-07-20T10:35:14;1.49;;;1.49;;
71172;SDS011;58875;51.996;4.504;2023-07-20T10:40:24;1.57;;;1.57;;
71172;SDS011;58875;51.996;4.504;2023-07-20T10:42:50;1.52;;;1.52;;
71172;SDS011;58875;51.996;4.504;2023-07-20T10:45:19;1.54;;;1.54;;
71172;SDS011;58875;51.996;4.504;2023-07-20T10:47:45;1.77;;;1.77;;
71172;SDS011;58875;51.996;4.504;2023-07-20T10:50:12;1.66;;;1.66;;
71172;SDS011;58875;51.996;4.504;2023-07-20T10:52:39;1.48;;;1.48;;
71172;SDS011;58875;51.996;4.504;2023-07-20T10:55:15;1.61;;;1.61;;
71172;SDS011;58875;51.996;4.504;2023-07-20T10:57:41;1.38;;;1.38;;
71172;SDS011;58875;51.996;4.504;2023-07-20T11:00:07;1.36;;;1.36;;
71172;SDS011;58875;51.996;4.504;2023-07-20T11:02:48;1.37;;;1.37;;
71172;SDS011;58875;51.996;4.504;2023-07-20T11:08:05;1.41;;;1.41;;
71172;SDS011;58875;51.996;4.504;2023-07-20T11:10:35;1.62;;;1.62;;
71172;SDS011;58875;51.996;4.504;2023-07-20T11:16:18;1.58;;;1.58;;
71172;SDS011;58875;51.996;4.504;2023-07-20T11:18:44;1.49;;;1.49;;
71172;SDS011;58875;51.996;4.504;2023-07-20T11:21:10;1.60;;;1.60;;
71172;SDS011;58875;51.996;4.504;2023-07-20T11:23:37;1.62;;;1.62;;
71172;SDS011;58875;51.996;4.504;2023-07-20T11:26:04;1.50;;;1.50;;
71172;SDS011;58875;51.996;4.504;2023-07-20T11:28:29;1.37;;;1.37;;
71172;SDS011;58875;51.996;4.504;2023-07-20T11:30:55;1.41;;;1.41;;
71172;SDS011;58875;51.996;4.504;2023-07-20T11:33:21;1.44;;;1.44;;
71172;SDS011;58875;51.996;4.504;2023-07-20T11:35:48;1.40;;;1.40;;
71172;SDS011;58875;51.996;4.504;2023-07-20T11:38:16;1.39;;;1.39;;
71172;SDS011;58875;51.996;4.504;2023-07-20T11:40:44;1.67;;;1.67;;
71172;SDS011;58875;51.996;4.504;2023-07-20T11:43:14;1.68;;;1.68;;
71172;SDS011;58875;51.996;4.504;2023-07-20T11:45:40;1.54;;;1.54;;
71172;SDS011;58875;51.996;4.504;2023-07-20T11:48:06;1.60;;;1.60;;
71172;SDS011;58875;51.996;4.504;2023-07-20T11:50:32;1.49;;;1.49;;
71172;SDS011;58875;51.996;4.504;2023-07-20T11:53:03;1.60;;;1.60;;
71172;SDS011;58875;51.996;4.504;2023-07-20T11:55:29;1.76;;;1.76;;
71172;SDS011;58875;51.996;4.504;2023-07-20T11:58:06;1.64;;;1.64;;
71172;SDS011;58875;51.996;4.504;2023-07-20T12:00:33;1.86;;;1.86;;
71172;SDS011;58875;51.996;4.504;2023-07-20T12:03:00;1.84;;;1.84;;
71172;SDS011;58875;51.996;4.504;2023-07-20T12:05:26;1.94;;;1.94;;
71172;SDS011;58875;51.996;4.504;2023-07-20T12:07:52;1.86;;;1.86;;
71172;SDS011;58875;51.996;4.504;2023-07-20T12:10:27;1.67;;;1.67;;
71172;SDS011;58875;51.996;4.504;2023-07-20T12:12:54;1.65;;;1.65;;
71172;SDS011;58875;51.996;4.504;2023-07-20T12:15:20;1.46;;;1.46;;
71172;SDS011;58875;51.996;4.504;2023-07-20T12:18:00;1.60;;;1.60;;
71172;SDS011;58875;51.996;4.504;2023-07-20T12:20:28;1.45;;;1.45;;
71172;SDS011;58875;51.996;4.504;2023-07-20T12:23:00;1.50;;;1.50;;
71172;SDS011;58875;51.996;4.504;2023-07-20T12:25:36;1.59;;;1.59;;
71172;SDS011;58875;51.996;4.504;2023-07-20T12:28:13;1.56;;;1.56;;
71172;SDS011;58875;51.996;4.504;2023-07-20T12:30:41;1.51;;;1.51;;
71172;SDS011;58875;51.996;4.504;2023-07-20T12:33:07;1.44;;;1.44;;
71172;SDS011;58875;51.996;4.504;2023-07-20T12:35:33;1.55;;;1.55;;
71172;SDS011;58875;51.996;4.504;2023-07-20T12:37:59;2.10;;;2.10;;
71172;SDS011;58875;51.996;4.504;2023-07-20T12:40:25;1.85;;;1.85;;
71172;SDS011;58875;51.996;4.504;2023-07-20T12:42:51;1.58;;;1.58;;
71172;SDS011;58875;51.996;4.504;2023-07-20T12:45:17;1.67;;;1.67;;
71172;SDS011;58875;51.996;4.504;2023-07-20T12:47:43;1.60;;;1.60;;
71172;SDS011;58875;51.996;4.504;2023-07-20T12:50:09;1.50;;;1.50;;
71172;SDS011;58875;51.996;4.504;2023-07-20T12:52:36;1.50;;;1.50;;
71172;SDS011;58875;51.996;4.504;2023-07-20T12:55:03;1.37;;;1.37;;
71172;SDS011;58875;51.996;4.504;2023-07-20T12:57:30;1.34;;;1.34;;
71172;SDS011;58875;51.996;4.504;2023-07-20T12:59:55;1.40;;;1.40;;
71172;SDS011;58875;51.996;4.504;2023-07-20T13:02:21;1.45;;;1.45;;
71172;SDS011;58875;51.996;4.504;2023-07-20T13:04:46;1.48;;;1.48;;
71172;SDS011;58875;51.996;4.504;2023-07-20T13:07:12;1.41;;;1.41;;
71172;SDS011;58875;51.996;4.504;2023-07-20T13:09:37;1.49;;;1.49;;
71172;SDS011;58875;51.996;4.504;2023-07-20T13:12:03;1.41;;;1.41;;
71172;SDS011;58875;51.996;4.504;2023-07-20T13:14:28;1.48;;;1.48;;
71172;SDS011;58875;51.996;4.504;2023-07-20T13:16:55;1.27;;;1.27;;
71172;SDS011;58875;51.996;4.504;2023-07-20T13:19:21;1.23;;;1.23;;
71172;SDS011;58875;51.996;4.504;2023-07-20T13:21:47;1.36;;;1.36;;
71172;SDS011;58875;51.996;4.504;2023-07-20T13:24:13;1.23;;;1.23;;
71172;SDS011;58875;51.996;4.504;2023-07-20T13:26:38;1.25;;;1.25;;
71172;SDS011;58875;51.996;4.504;2023-07-20T13:29:04;1.21;;;1.21;;
71172;SDS011;58875;51.996;4.504;2023-07-20T13:31:29;1.20;;;1.20;;
71172;SDS011;58875;51.996;4.504;2023-07-20T13:33:55;1.20;;;1.20;;
71172;SDS011;58875;51.996;4.504;2023-07-20T13:36:21;1.12;;;1.12;;
71172;SDS011;58875;51.996;4.504;2023-07-20T13:38:48;1.15;;;1.15;;
71172;SDS011;58875;51.996;4.504;2023-07-20T13:41:14;1.18;;;1.18;;
71172;SDS011;58875;51.996;4.504;2023-07-20T13:43:40;1.13;;;1.13;;
71172;SDS011;58875;51.996;4.504;2023-07-20T13:46:06;1.24;;;1.24;;
71172;SDS011;58875;51.996;4.504;2023-07-20T13:48:31;1.14;;;1.14;;
71172;SDS011;58875;51.996;4.504;2023-07-20T13:50:57;1.05;;;1.05;;
71172;SDS011;58875;51.996;4.504;2023-07-20T13:53:22;1.16;;;1.16;;
71172;SDS011;58875;51.996;4.504;2023-07-20T13:55:48;1.24;;;1.24;;
71172;SDS011;58875;51.996;4.504;2023-07-20T13:58:14;1.12;;;1.12;;
71172;SDS011;58875;51.996;4.504;2023-07-20T14:00:39;1.06;;;1.06;;
71172;SDS011;58875;51.996;4.504;2023-07-20T14:03:05;1.04;;;1.04;;
71172;SDS011;58875;51.996;4.504;2023-07-20T14:05:31;1.01;;;1.01;;
71172;SDS011;58875;51.996;4.504;2023-07-20T14:07:56;0.87;;;0.87;;
71172;SDS011;58875;51.996;4.504;2023-07-20T14:10:22;1.05;;;1.05;;
71172;SDS011;58875;51.996;4.504;2023-07-20T14:12:48;0.96;;;0.96;;
71172;SDS011;58875;51.996;4.504;2023-07-20T14:15:13;0.95;;;0.95;;
71172;SDS011;58875;51.996;4.504;2023-07-20T14:17:39;0.99;;;0.99;;
71172;SDS011;58875;51.996;4.504;2023-07-20T14:20:04;1.09;;;1.09;;
71172;SDS011;58875;51.996;4.504;2023-07-20T14:22:30;0.98;;;0.98;;
71172;SDS011;58875;51.996;4.504;2023-07-20T14:24:56;0.90;;;0.90;;
71172;SDS011;58875;51.996;4.504;2023-07-20T14:27:22;1.04;;;1.04;;
71172;SDS011;58875;51.996;4.504;2023-07-20T14:29:47;1.07;;;1.07;;
71172;SDS011;58875;51.996;4.504;2023-07-20T14:32:13;1.08;;;1.08;;
71172;SDS011;58875;51.996;4.504;2023-07-20T14:34:38;0.86;;;0.86;;
71172;SDS011;58875;51.996;4.504;2023-07-20T14:37:05;0.77;;;0.77;;
71172;SDS011;58875;51.996;4.504;2023-07-20T14:39:31;0.91;;;0.91;;
71172;SDS011;58875;51.996;4.504;2023-07-20T14:41:57;0.95;;;0.95;;
71172;SDS011;58875;51.996;4.504;2023-07-20T14:44:22;0.88;;;0.88;;
71172;SDS011;58875;51.996;4.504;2023-07-20T14:46:48;0.87;;;0.87;;
71172;SDS011;58875;51.996;4.504;2023-07-20T14:49:13;0.88;;;0.88;;
71172;SDS011;58875;51.996;4.504;2023-07-20T14:51:39;0.85;;;0.85;;
71172;SDS011;58875;51.996;4.504;2023-07-20T14:54:09;0.89;;;0.89;;
71172;SDS011;58875;51.996;4.504;2023-07-20T14:56:35;0.85;;;0.85;;
71172;SDS011;58875;51.996;4.504;2023-07-20T14:59:02;1.05;;;1.05;;
71172;SDS011;58875;51.996;4.504;2023-07-20T15:01:29;0.97;;;0.97;;
71172;SDS011;58875;51.996;4.504;2023-07-20T15:03:54;1.02;;;1.02;;
71172;SDS011;58875;51.996;4.504;2023-07-20T15:06:21;1.03;;;1.03;;
71172;SDS011;58875;51.996;4.504;2023-07-20T15:08:47;0.97;;;0.97;;